sensor_id;sensor_type;location;lat;lon;timestamp;temperature;humidity
67763;DHT22;54566;52.022;5.582;2024-03-22T00:00:17;11.40;99.90
67763;DHT22;54566;52.022;5.582;2024-03-22T00:02:43;11.30;99.90
67763;DHT22;54566;52.022;5.582;2024-03-22T00:05:08;11.40;99.90
67763;DHT22;54566;52.022;5.582;2024-03-22T00:07:34;11.40;99.90
67763;DHT22;54566;52.022;5.582;2024-03-22T00:10:04;11.40;99.90
67763;DHT22;54566;52.022;5.582;2024-03-22T00:12:30;11.50;99.90
67763;DHT22;54566;52.022;5.582;2024-03-22T00:14:56;11.40;99.90
67763;DHT22;54566;52.022;5.582;2024-03-22T00:17:22;11.50;99.90
67763;DHT22;54566;52.022;5.582;2024-03-22T00:19:48;11.50;99.90
67763;DHT22;54566;52.022;5.582;2024-03-22T00:22:14;11.50;99.90
67763;DHT22;54566;52.022;5.582;2024-03-22T00:24:43;11.50;99.90
67763;DHT22;54566;52.022;5.582;2024-03-22T00:27:09;11.50;99.90
67763;DHT22;54566;52.022;5.582;2024-03-22T00:29:38;11.50;99.90
67763;DHT22;54566;52.022;5.582;2024-03-22T00:32:04;11.60;99.90
67763;DHT22;54566;52.022;5.582;2024-03-22T00:34:33;11.50;99.90
67763;DHT22;54566;52.022;5.582;2024-03-22T00:36:59;11.60;99.90
67763;DHT22;54566;52.022;5.582;2024-03-22T00:39:25;11.60;99.90
67763;DHT22;54566;52.022;5.582;2024-03-22T00:41:51;11.60;99.90
67763;DHT22;54566;52.022;5.582;2024-03-22T00:44:19;11.60;99.90
67763;DHT22;54566;52.022;5.582;2024-03-22T00:46:46;11.60;99.90
67763;DHT22;54566;52.022;5.582;2024-03-22T00:49:13;11.60;99.90
67763;DHT22;54566;52.022;5.582;2024-03-22T00:51:39;11.60;99.90
67763;DHT22;54566;52.022;5.582;2024-03-22T00:54:08;11.60;99.90
67763;DHT22;54566;52.022;5.582;2024-03-22T00:56:34;11.60;99.90
67763;DHT22;54566;52.022;5.582;2024-03-22T00:59:03;11.60;99.90
67763;DHT22;54566;52.022;5.582;2024-03-22T01:01:32;11.60;99.90
67763;DHT22;54566;52.022;5.582;2024-03-22T01:03:58;11.60;99.90
67763;DHT22;54566;52.022;5.582;2024-03-22T01:06:23;11.60;99.90
67763;DHT22;54566;52.022;5.582;2024-03-22T01:08:50;11.60;99.90
67763;DHT22;54566;52.022;5.582;2024-03-22T01:11:17;11.50;99.90
67763;DHT22;54566;52.022;5.582;2024-03-22T01:13:43;11.50;99.90
67763;DHT22;54566;52.022;5.582;2024-03-22T01:16:09;11.50;99.90
67763;DHT22;54566;52.022;5.582;2024-03-22T01:18:36;11.50;99.90
67763;DHT22;54566;52.022;5.582;2024-03-22T01:21:02;11.50;99.90
67763;DHT22;54566;52.022;5.582;2024-03-22T01:23:28;11.50;99.90
67763;DHT22;54566;52.022;5.582;2024-03-22T01:25:53;11.50;99.90
67763;DHT22;54566;52.022;5.582;2024-03-22T01:28:19;11.50;99.90
67763;DHT22;54566;52.022;5.582;2024-03-22T01:30:45;11.50;99.90
67763;DHT22;54566;52.022;5.582;2024-03-22T01:33:11;11.50;99.90
67763;DHT22;54566;52.022;5.582;2024-03-22T01:35:37;11.50;99.90
67763;DHT22;54566;52.022;5.582;2024-03-22T01:38:05;11.50;99.90
67763;DHT22;54566;52.022;5.582;2024-03-22T01:40:34;11.50;99.90
67763;DHT22;54566;52.022;5.582;2024-03-22T01:43:00;11.50;99.90
67763;DHT22;54566;52.022;5.582;2024-03-22T01:45:27;11.50;99.90
67763;DHT22;54566;52.022;5.582;2024-03-22T01:47:56;11.50;99.90
67763;DHT22;54566;52.022;5.582;2024-03-22T01:50:23;11.50;99.90
67763;DHT22;54566;52.022;5.582;2024-03-22T01:52:51;11.40;99.90
67763;DHT22;54566;52.022;5.582;2024-03-22T01:55:17;11.50;99.90
67763;DHT22;54566;52.022;5.582;2024-03-22T01:57:43;11.40;99.90
67763;DHT22;54566;52.022;5.582;2024-03-22T02:00:10;11.40;99.90
67763;DHT22;54566;52.022;5.582;2024-03-22T02:02:37;11.50;99.90
67763;DHT22;54566;52.022;5.582;2024-03-22T02:05:19;11.50;99.90
67763;DHT22;54566;52.022;5.582;2024-03-22T02:07:46;11.50;99.90
67763;DHT22;54566;52.022;5.582;2024-03-22T02:10:12;11.50;99.90
67763;DHT22;54566;52.022;5.582;2024-03-22T02:12:38;11.50;99.90
67763;DHT22;54566;52.022;5.582;2024-03-22T02:15:05;11.50;99.90
67763;DHT22;54566;52.022;5.582;2024-03-22T02:17:32;11.50;99.90
67763;DHT22;54566;52.022;5.582;2024-03-22T02:19:59;11.50;99.90
67763;DHT22;54566;52.022;5.582;2024-03-22T02:22:28;11.50;99.90
67763;DHT22;54566;52.022;5.582;2024-03-22T02:24:54;11.50;99.90
67763;DHT22;54566;52.022;5.582;2024-03-22T02:27:20;11.50;99.90
67763;DHT22;54566;52.022;5.582;2024-03-22T02:29:46;11.50;99.90
67763;DHT22;54566;52.022;5.582;2024-03-22T02:32:12;11.50;99.90
67763;DHT22;54566;52.022;5.582;2024-03-22T02:34:38;11.50;99.90
67763;DHT22;54566;52.022;5.582;2024-03-22T02:37:06;11.50;99.90
67763;DHT22;54566;52.022;5.582;2024-03-22T02:39:32;11.50;99.90
67763;DHT22;54566;52.022;5.582;2024-03-22T02:42:03;11.50;99.90
67763;DHT22;54566;52.022;5.582;2024-03-22T02:44:29;11.60;99.90
67763;DHT22;54566;52.022;5.582;2024-03-22T02:46:55;11.50;99.90
67763;DHT22;54566;52.022;5.582;2024-03-22T02:49:20;11.50;99.90
67763;DHT22;54566;52.022;5.582;2024-03-22T02:51:46;11.50;99.90
67763;DHT22;54566;52.022;5.582;2024-03-22T02:54:12;11.50;99.90
67763;DHT22;54566;52.022;5.582;2024-03-22T02:56:39;11.50;99.90
67763;DHT22;54566;52.022;5.582;2024-03-22T02:59:05;11.50;99.90
67763;DHT22;54566;52.022;5.582;2024-03-22T03:01:39;11.50;99.90
67763;DHT22;54566;52.022;5.582;2024-03-22T03:04:12;11.50;99.90
67763;DHT22;54566;52.022;5.582;2024-03-22T03:06:45;11.50;99.90
67763;DHT22;54566;52.022;5.582;2024-03-22T03:09:12;11.40;99.90
67763;DHT22;54566;52.022;5.582;2024-03-22T03:11:40;11.50;99.90
67763;DHT22;54566;52.022;5.582;2024-03-22T03:14:09;11.40;99.90
67763;DHT22;54566;52.022;5.582;2024-03-22T03:16:35;11.40;99.90
67763;DHT22;54566;52.022;5.582;2024-03-22T03:19:01;11.40;99.90
67763;DHT22;54566;52.022;5.582;2024-03-22T03:21:27;11.40;99.90
67763;DHT22;54566;52.022;5.582;2024-03-22T03:23:52;11.40;99.90
67763;DHT22;54566;52.022;5.582;2024-03-22T03:26:18;11.40;99.90
67763;DHT22;54566;52.022;5.582;2024-03-22T03:28:46;11.40;99.90
67763;DHT22;54566;52.022;5.582;2024-03-22T03:31:12;11.40;99.90
67763;DHT22;54566;52.022;5.582;2024-03-22T03:33:38;11.40;99.90
67763;DHT22;54566;52.022;5.582;2024-03-22T03:36:04;11.40;99.90
67763;DHT22;54566;52.022;5.582;2024-03-22T03:38:34;11.40;99.90
67763;DHT22;54566;52.022;5.582;2024-03-22T03:41:03;11.40;99.90
67763;DHT22;54566;52.022;5.582;2024-03-22T03:44:02;11.40;99.90
67763;DHT22;54566;52.022;5.582;2024-03-22T03:46:28;11.40;99.90
67763;DHT22;54566;52.022;5.582;2024-03-22T03:48:57;11.30;99.90
67763;DHT22;54566;52.022;5.582;2024-03-22T03:51:26;11.20;99.90
67763;DHT22;54566;52.022;5.582;2024-03-22T03:53:51;11.20;99.90
67763;DHT22;54566;52.022;5.582;2024-03-22T03:56:17;11.10;99.90
67763;DHT22;54566;52.022;5.582;2024-03-22T03:58:46;11.10;99.90
67763;DHT22;54566;52.022;5.582;2024-03-22T04:01:17;11.10;99.90
67763;DHT22;54566;52.022;5.582;2024-03-22T04:03:48;11.00;99.90
67763;DHT22;54566;52.022;5.582;2024-03-22T04:06:14;11.00;99.90
67763;DHT22;54566;52.022;5.582;2024-03-22T04:08:45;10.90;99.90
67763;DHT22;54566;52.022;5.582;2024-03-22T04:11:12;10.90;99.90
67763;DHT22;54566;52.022;5.582;2024-03-22T04:13:38;10.90;99.90
67763;DHT22;54566;52.022;5.582;2024-03-22T04:16:07;10.90;99.90
67763;DHT22;54566;52.022;5.582;2024-03-22T04:18:33;10.90;99.90
67763;DHT22;54566;52.022;5.582;2024-03-22T04:21:02;10.90;99.90
67763;DHT22;54566;52.022;5.582;2024-03-22T04:23:33;10.90;99.90
67763;DHT22;54566;52.022;5.582;2024-03-22T04:26:00;10.90;99.90
67763;DHT22;54566;52.022;5.582;2024-03-22T04:28:29;10.90;99.90
67763;DHT22;54566;52.022;5.582;2024-03-22T04:31:01;10.90;99.90
67763;DHT22;54566;52.022;5.582;2024-03-22T04:33:34;10.90;99.90
67763;DHT22;54566;52.022;5.582;2024-03-22T04:36:05;10.90;99.90
67763;DHT22;54566;52.022;5.582;2024-03-22T04:38:38;10.90;99.90
67763;DHT22;54566;52.022;5.582;2024-03-22T04:41:10;10.90;99.90
67763;DHT22;54566;52.022;5.582;2024-03-22T04:43:41;10.90;99.90
67763;DHT22;54566;52.022;5.582;2024-03-22T04:46:08;10.90;99.90
67763;DHT22;54566;52.022;5.582;2024-03-22T04:48:34;10.90;99.90
67763;DHT22;54566;52.022;5.582;2024-03-22T04:51:00;10.90;99.90
67763;DHT22;54566;52.022;5.582;2024-03-22T04:53:34;10.80;99.90
67763;DHT22;54566;52.022;5.582;2024-03-22T04:55:59;10.80;99.90
67763;DHT22;54566;52.022;5.582;2024-03-22T04:58:27;10.80;99.90
67763;DHT22;54566;52.022;5.582;2024-03-22T05:00:57;10.80;99.90
67763;DHT22;54566;52.022;5.582;2024-03-22T05:03:23;10.80;99.90
67763;DHT22;54566;52.022;5.582;2024-03-22T05:05:50;10.70;99.90
67763;DHT22;54566;52.022;5.582;2024-03-22T05:08:16;10.80;99.90
67763;DHT22;54566;52.022;5.582;2024-03-22T05:10:42;10.80;99.90
67763;DHT22;54566;52.022;5.582;2024-03-22T05:13:11;10.70;99.90
67763;DHT22;54566;52.022;5.582;2024-03-22T05:15:39;10.70;99.90
67763;DHT22;54566;52.022;5.582;2024-03-22T05:18:05;10.70;99.90
67763;DHT22;54566;52.022;5.582;2024-03-22T05:20:31;10.70;99.90
67763;DHT22;54566;52.022;5.582;2024-03-22T05:22:57;10.70;99.90
67763;DHT22;54566;52.022;5.582;2024-03-22T05:25:23;10.70;99.90
67763;DHT22;54566;52.022;5.582;2024-03-22T05:27:49;10.60;99.90
67763;DHT22;54566;52.022;5.582;2024-03-22T05:30:17;10.60;99.90
67763;DHT22;54566;52.022;5.582;2024-03-22T05:32:43;10.70;99.90
67763;DHT22;54566;52.022;5.582;2024-03-22T05:35:09;10.60;99.90
67763;DHT22;54566;52.022;5.582;2024-03-22T05:37:35;10.60;99.90
67763;DHT22;54566;52.022;5.582;2024-03-22T05:40:02;10.60;99.90
67763;DHT22;54566;52.022;5.582;2024-03-22T05:42:29;10.60;99.90
67763;DHT22;54566;52.022;5.582;2024-03-22T05:44:55;10.60;99.90
67763;DHT22;54566;52.022;5.582;2024-03-22T05:47:23;10.60;99.90
67763;DHT22;54566;52.022;5.582;2024-03-22T05:49:52;10.60;99.90
67763;DHT22;54566;52.022;5.582;2024-03-22T05:52:18;10.60;99.90
67763;DHT22;54566;52.022;5.582;2024-03-22T05:54:45;10.60;99.90
67763;DHT22;54566;52.022;5.582;2024-03-22T05:57:12;10.60;99.90
67763;DHT22;54566;52.022;5.582;2024-03-22T05:59:39;10.60;99.90
67763;DHT22;54566;52.022;5.582;2024-03-22T06:02:06;10.60;99.90
67763;DHT22;54566;52.022;5.582;2024-03-22T06:04:34;10.60;99.90
67763;DHT22;54566;52.022;5.582;2024-03-22T06:07:00;10.60;99.90
67763;DHT22;54566;52.022;5.582;2024-03-22T06:09:31;10.60;99.90
67763;DHT22;54566;52.022;5.582;2024-03-22T06:12:04;10.60;99.90
67763;DHT22;54566;52.022;5.582;2024-03-22T06:14:31;10.70;99.90
67763;DHT22;54566;52.022;5.582;2024-03-22T06:17:03;10.70;99.90
67763;DHT22;54566;52.022;5.582;2024-03-22T06:19:28;10.70;99.90
67763;DHT22;54566;52.022;5.582;2024-03-22T06:21:56;10.70;99.90
67763;DHT22;54566;52.022;5.582;2024-03-22T06:24:25;10.70;99.90
67763;DHT22;54566;52.022;5.582;2024-03-22T06:26:51;10.70;99.90
67763;DHT22;54566;52.022;5.582;2024-03-22T06:29:17;10.70;99.90
67763;DHT22;54566;52.022;5.582;2024-03-22T06:31:42;10.70;99.90
67763;DHT22;54566;52.022;5.582;2024-03-22T06:34:10;10.70;99.90
67763;DHT22;54566;52.022;5.582;2024-03-22T06:36:35;10.80;99.90
67763;DHT22;54566;52.022;5.582;2024-03-22T06:39:01;10.70;99.90
67763;DHT22;54566;52.022;5.582;2024-03-22T06:41:30;10.80;99.90
67763;DHT22;54566;52.022;5.582;2024-03-22T06:43:55;10.80;99.90
67763;DHT22;54566;52.022;5.582;2024-03-22T06:46:23;10.80;99.90
67763;DHT22;54566;52.022;5.582;2024-03-22T06:48:55;10.80;99.90
67763;DHT22;54566;52.022;5.582;2024-03-22T06:51:23;10.80;99.90
67763;DHT22;54566;52.022;5.582;2024-03-22T06:53:52;10.80;99.90
67763;DHT22;54566;52.022;5.582;2024-03-22T06:56:18;10.90;99.90
67763;DHT22;54566;52.022;5.582;2024-03-22T06:58:48;10.90;99.90
67763;DHT22;54566;52.022;5.582;2024-03-22T07:01:23;10.90;99.90
67763;DHT22;54566;52.022;5.582;2024-03-22T07:03:49;10.90;99.90
67763;DHT22;54566;52.022;5.582;2024-03-22T07:06:33;10.90;99.90
67763;DHT22;54566;52.022;5.582;2024-03-22T07:08:59;11.00;99.90
67763;DHT22;54566;52.022;5.582;2024-03-22T07:11:27;11.00;99.90
67763;DHT22;54566;52.022;5.582;2024-03-22T07:14:10;11.00;99.90
67763;DHT22;54566;52.022;5.582;2024-03-22T07:16:41;11.10;99.90
67763;DHT22;54566;52.022;5.582;2024-03-22T07:19:20;11.20;99.90
67763;DHT22;54566;52.022;5.582;2024-03-22T07:24:55;11.20;99.90
67763;DHT22;54566;52.022;5.582;2024-03-22T07:27:24;11.30;99.90
67763;DHT22;54566;52.022;5.582;2024-03-22T07:29:54;11.30;99.90
67763;DHT22;54566;52.022;5.582;2024-03-22T07:32:23;11.30;99.90
67763;DHT22;54566;52.022;5.582;2024-03-22T07:34:49;11.30;99.90
67763;DHT22;54566;52.022;5.582;2024-03-22T07:37:15;11.30;99.90
67763;DHT22;54566;52.022;5.582;2024-03-22T07:39:44;11.30;99.90
67763;DHT22;54566;52.022;5.582;2024-03-22T07:42:10;11.40;99.90
67763;DHT22;54566;52.022;5.582;2024-03-22T07:44:35;11.40;99.90
67763;DHT22;54566;52.022;5.582;2024-03-22T07:47:01;11.40;99.90
67763;DHT22;54566;52.022;5.582;2024-03-22T07:49:27;11.40;99.90
67763;DHT22;54566;52.022;5.582;2024-03-22T07:51:52;11.50;99.90
67763;DHT22;54566;52.022;5.582;2024-03-22T07:54:19;11.50;99.90
67763;DHT22;54566;52.022;5.582;2024-03-22T07:56:46;11.40;99.90
67763;DHT22;54566;52.022;5.582;2024-03-22T07:59:11;11.50;99.90
67763;DHT22;54566;52.022;5.582;2024-03-22T08:01:37;11.40;99.90
67763;DHT22;54566;52.022;5.582;2024-03-22T08:04:03;11.40;99.90
67763;DHT22;54566;52.022;5.582;2024-03-22T08:06:28;11.30;99.90
67763;DHT22;54566;52.022;5.582;2024-03-22T08:08:54;11.30;99.90
67763;DHT22;54566;52.022;5.582;2024-03-22T08:11:20;11.30;99.90
67763;DHT22;54566;52.022;5.582;2024-03-22T08:13:49;11.40;99.90
67763;DHT22;54566;52.022;5.582;2024-03-22T08:16:15;11.40;99.90
67763;DHT22;54566;52.022;5.582;2024-03-22T08:18:49;11.40;99.90
67763;DHT22;54566;52.022;5.582;2024-03-22T08:21:15;11.40;99.90
67763;DHT22;54566;52.022;5.582;2024-03-22T08:23:41;11.40;99.90
67763;DHT22;54566;52.022;5.582;2024-03-22T08:26:09;11.40;99.90
67763;DHT22;54566;52.022;5.582;2024-03-22T08:28:34;11.40;99.90
67763;DHT22;54566;52.022;5.582;2024-03-22T08:31:04;11.40;99.90
67763;DHT22;54566;52.022;5.582;2024-03-22T08:33:29;11.40;99.90
67763;DHT22;54566;52.022;5.582;2024-03-22T08:35:55;11.40;99.90
67763;DHT22;54566;52.022;5.582;2024-03-22T08:38:23;11.40;99.90
67763;DHT22;54566;52.022;5.582;2024-03-22T08:40:50;11.30;99.90
67763;DHT22;54566;52.022;5.582;2024-03-22T08:43:18;11.30;99.90
67763;DHT22;54566;52.022;5.582;2024-03-22T08:45:49;11.30;99.90
67763;DHT22;54566;52.022;5.582;2024-03-22T08:48:15;11.20;99.90
67763;DHT22;54566;52.022;5.582;2024-03-22T08:50:47;11.30;99.90
67763;DHT22;54566;52.022;5.582;2024-03-22T08:53:12;11.30;99.90
67763;DHT22;54566;52.022;5.582;2024-03-22T08:55:47;11.30;99.90
67763;DHT22;54566;52.022;5.582;2024-03-22T08:58:14;11.30;99.90
67763;DHT22;54566;52.022;5.582;2024-03-22T09:00:41;11.30;99.90
67763;DHT22;54566;52.022;5.582;2024-03-22T09:03:07;11.30;99.90
67763;DHT22;54566;52.022;5.582;2024-03-22T09:05:33;11.30;99.90
67763;DHT22;54566;52.022;5.582;2024-03-22T09:07:59;11.30;99.90
67763;DHT22;54566;52.022;5.582;2024-03-22T09:10:27;11.20;99.90
67763;DHT22;54566;52.022;5.582;2024-03-22T09:12:55;11.30;99.90
67763;DHT22;54566;52.022;5.582;2024-03-22T09:15:21;11.20;99.90
67763;DHT22;54566;52.022;5.582;2024-03-22T09:17:47;11.20;99.90
67763;DHT22;54566;52.022;5.582;2024-03-22T09:20:14;11.30;99.90
67763;DHT22;54566;52.022;5.582;2024-03-22T09:22:39;11.30;99.90
67763;DHT22;54566;52.022;5.582;2024-03-22T09:25:09;11.30;99.90
67763;DHT22;54566;52.022;5.582;2024-03-22T09:27:36;11.30;99.90
67763;DHT22;54566;52.022;5.582;2024-03-22T09:30:02;11.30;99.90
67763;DHT22;54566;52.022;5.582;2024-03-22T09:32:29;11.30;99.90
67763;DHT22;54566;52.022;5.582;2024-03-22T09:35:00;11.30;99.90
67763;DHT22;54566;52.022;5.582;2024-03-22T09:37:26;11.30;99.90
67763;DHT22;54566;52.022;5.582;2024-03-22T09:39:52;11.30;99.90
67763;DHT22;54566;52.022;5.582;2024-03-22T09:42:18;11.30;99.90
67763;DHT22;54566;52.022;5.582;2024-03-22T09:47:48;11.30;99.90
67763;DHT22;54566;52.022;5.582;2024-03-22T09:50:14;11.30;99.90
67763;DHT22;54566;52.022;5.582;2024-03-22T09:52:44;11.30;99.90
67763;DHT22;54566;52.022;5.582;2024-03-22T09:55:10;11.30;99.90
67763;DHT22;54566;52.022;5.582;2024-03-22T09:58:15;11.30;99.90
67763;DHT22;54566;52.022;5.582;2024-03-22T10:00:53;11.30;99.90
67763;DHT22;54566;52.022;5.582;2024-03-22T10:06:35;11.30;99.90
67763;DHT22;54566;52.022;5.582;2024-03-22T10:09:02;11.30;99.90
67763;DHT22;54566;52.022;5.582;2024-03-22T10:11:29;11.30;99.90
67763;DHT22;54566;52.022;5.582;2024-03-22T10:13:55;11.30;99.90
67763;DHT22;54566;52.022;5.582;2024-03-22T10:16:24;11.20;99.90
67763;DHT22;54566;52.022;5.582;2024-03-22T10:18:50;11.30;99.90
67763;DHT22;54566;52.022;5.582;2024-03-22T10:21:19;11.30;99.90
67763;DHT22;54566;52.022;5.582;2024-03-22T10:23:49;11.30;99.90
67763;DHT22;54566;52.022;5.582;2024-03-22T10:26:16;11.30;99.90
67763;DHT22;54566;52.022;5.582;2024-03-22T10:28:46;11.20;99.90
67763;DHT22;54566;52.022;5.582;2024-03-22T10:31:15;11.20;99.90
67763;DHT22;54566;52.022;5.582;2024-03-22T10:33:41;11.30;99.90
67763;DHT22;54566;52.022;5.582;2024-03-22T10:36:09;11.30;99.90
67763;DHT22;54566;52.022;5.582;2024-03-22T10:38:38;11.30;99.90
67763;DHT22;54566;52.022;5.582;2024-03-22T10:41:04;11.20;99.90
67763;DHT22;54566;52.022;5.582;2024-03-22T10:43:31;11.20;99.90
67763;DHT22;54566;52.022;5.582;2024-03-22T10:46:02;11.20;99.90
67763;DHT22;54566;52.022;5.582;2024-03-22T10:48:30;11.20;99.90
67763;DHT22;54566;52.022;5.582;2024-03-22T10:51:00;11.10;99.90
67763;DHT22;54566;52.022;5.582;2024-03-22T10:53:27;11.10;99.90
67763;DHT22;54566;52.022;5.582;2024-03-22T10:55:56;11.10;99.90
67763;DHT22;54566;52.022;5.582;2024-03-22T10:58:25;11.00;99.90
67763;DHT22;54566;52.022;5.582;2024-03-22T12:03:52;11.20;99.90
67763;DHT22;54566;52.022;5.582;2024-03-22T12:06:20;11.30;99.90
67763;DHT22;54566;52.022;5.582;2024-03-22T12:08:49;11.30;99.90
67763;DHT22;54566;52.022;5.582;2024-03-22T12:11:23;11.30;99.90
67763;DHT22;54566;52.022;5.582;2024-03-22T12:13:51;11.30;99.90
67763;DHT22;54566;52.022;5.582;2024-03-22T12:16:21;11.40;99.90
67763;DHT22;54566;52.022;5.582;2024-03-22T12:18:49;11.40;99.90
67763;DHT22;54566;52.022;5.582;2024-03-22T12:21:21;11.40;99.90
67763;DHT22;54566;52.022;5.582;2024-03-22T12:23:47;11.50;99.90
67763;DHT22;54566;52.022;5.582;2024-03-22T12:26:15;11.50;99.90
67763;DHT22;54566;52.022;5.582;2024-03-22T12:28:44;11.50;99.90
67763;DHT22;54566;52.022;5.582;2024-03-22T12:31:13;11.50;99.90
67763;DHT22;54566;52.022;5.582;2024-03-22T12:33:45;11.60;99.90
67763;DHT22;54566;52.022;5.582;2024-03-22T12:36:14;11.60;99.90
67763;DHT22;54566;52.022;5.582;2024-03-22T12:38:43;11.60;99.90
67763;DHT22;54566;52.022;5.582;2024-03-22T12:41:09;11.70;99.90
67763;DHT22;54566;52.022;5.582;2024-03-22T12:44:00;11.70;99.90
67763;DHT22;54566;52.022;5.582;2024-03-22T12:46:35;11.70;99.90
67763;DHT22;54566;52.022;5.582;2024-03-22T12:49:26;11.70;99.90
67763;DHT22;54566;52.022;5.582;2024-03-22T12:51:58;11.80;99.90
67763;DHT22;54566;52.022;5.582;2024-03-22T15:03:01;11.60;99.90
67763;DHT22;54566;52.022;5.582;2024-03-22T15:05:57;11.60;99.90
67763;DHT22;54566;52.022;5.582;2024-03-22T15:08:31;11.60;99.90
67763;DHT22;54566;52.022;5.582;2024-03-22T15:14:12;11.60;99.90
67763;DHT22;54566;52.022;5.582;2024-03-22T15:16:46;11.50;99.90
67763;DHT22;54566;52.022;5.582;2024-03-22T15:19:34;11.50;99.90
67763;DHT22;54566;52.022;5.582;2024-03-22T15:22:20;11.50;99.90
67763;DHT22;54566;52.022;5.582;2024-03-22T15:25:35;11.50;99.90
67763;DHT22;54566;52.022;5.582;2024-03-22T15:28:01;11.50;99.90
67763;DHT22;54566;52.022;5.582;2024-03-22T15:30:30;11.50;99.90
67763;DHT22;54566;52.022;5.582;2024-03-22T15:33:23;11.60;99.90
67763;DHT22;54566;52.022;5.582;2024-03-22T15:35:51;11.60;99.90
67763;DHT22;54566;52.022;5.582;2024-03-22T15:41:17;11.60;99.90
67763;DHT22;54566;52.022;5.582;2024-03-22T15:43:50;11.50;99.90
67763;DHT22;54566;52.022;5.582;2024-03-22T15:46:16;11.50;99.90
67763;DHT22;54566;52.022;5.582;2024-03-22T15:48:47;11.40;99.90
67763;DHT22;54566;52.022;5.582;2024-03-22T15:51:37;11.50;99.90
67763;DHT22;54566;52.022;5.582;2024-03-22T15:54:16;11.50;99.90
67763;DHT22;54566;52.022;5.582;2024-03-22T15:57:11;11.50;99.90
67763;DHT22;54566;52.022;5.582;2024-03-22T15:59:40;11.40;99.90
67763;DHT22;54566;52.022;5.582;2024-03-22T16:02:15;11.40;99.90
67763;DHT22;54566;52.022;5.582;2024-03-22T16:04:48;11.30;99.90
67763;DHT22;54566;52.022;5.582;2024-03-22T16:07:40;11.20;99.90
67763;DHT22;54566;52.022;5.582;2024-03-22T16:10:26;11.10;99.90
67763;DHT22;54566;52.022;5.582;2024-03-22T16:12:55;11.10;99.90
67763;DHT22;54566;52.022;5.582;2024-03-22T16:15:24;10.90;99.90
67763;DHT22;54566;52.022;5.582;2024-03-22T16:17:54;10.80;99.90
67763;DHT22;54566;52.022;5.582;2024-03-22T16:20:55;10.70;99.90
67763;DHT22;54566;52.022;5.582;2024-03-22T16:23:44;10.70;99.90
67763;DHT22;54566;52.022;5.582;2024-03-22T16:27:05;10.60;99.90
67763;DHT22;54566;52.022;5.582;2024-03-22T16:29:43;10.50;99.90
67763;DHT22;54566;52.022;5.582;2024-03-22T16:35:16;10.40;99.90
67763;DHT22;54566;52.022;5.582;2024-03-22T16:38:07;10.30;99.90
67763;DHT22;54566;52.022;5.582;2024-03-22T16:41:17;10.30;99.90
67763;DHT22;54566;52.022;5.582;2024-03-22T16:44:28;10.30;99.90
67763;DHT22;54566;52.022;5.582;2024-03-22T16:47:04;10.30;99.90
67763;DHT22;54566;52.022;5.582;2024-03-22T17:03:30;10.10;99.90
67763;DHT22;54566;52.022;5.582;2024-03-22T17:06:28;10.10;99.90
